createdAt,value
2022-11-09T00:01:46.158Z,4.43
2022-11-09T00:04:12.823Z,4.60
2022-11-09T00:06:39.693Z,4.47
2022-11-09T00:09:09.648Z,4.80
2022-11-09T00:11:38.000Z,4.40
2022-11-09T00:14:05.290Z,4.10
2022-11-09T00:16:32.305Z,4.87
2022-11-09T00:18:59.047Z,5.10
2022-11-09T00:21:26.680Z,4.60
2022-11-09T00:23:53.604Z,4.47
2022-11-09T00:26:21.433Z,5.03
2022-11-09T00:28:48.926Z,4.50
2022-11-09T00:31:22.055Z,4.80
2022-11-09T00:33:50.393Z,5.30
2022-11-09T00:36:17.881Z,4.80
2022-11-09T00:38:50.936Z,4.97
2022-11-09T00:41:18.160Z,4.80
2022-11-09T00:43:44.988Z,4.63
2022-11-09T00:46:12.428Z,4.73
2022-11-09T00:48:39.498Z,4.60
2022-11-09T00:51:06.702Z,4.60
2022-11-09T00:53:33.802Z,5.17
2022-11-09T00:56:03.299Z,5.40
2022-11-09T00:58:32.008Z,5.10
2022-11-09T01:01:00.242Z,4.43
2022-11-09T01:03:27.347Z,5.10
2022-11-09T01:05:54.194Z,4.97
2022-11-09T01:08:20.855Z,4.83
2022-11-09T01:10:48.876Z,4.47
2022-11-09T01:13:17.909Z,4.33
2022-11-09T01:15:48.278Z,4.43
2022-11-09T01:18:16.470Z,5.73
2022-11-09T01:20:45.159Z,6.30
2022-11-09T01:23:13.800Z,7.30
2022-11-09T01:25:40.841Z,7.37
2022-11-09T01:28:08.824Z,6.43
2022-11-09T01:30:37.757Z,5.73
2022-11-09T01:33:05.389Z,6.13
2022-11-09T01:35:39.525Z,5.90
2022-11-09T01:38:07.657Z,6.17
2022-11-09T01:40:37.477Z,5.53
2022-11-09T01:43:17.798Z,4.87
2022-11-09T01:45:56.109Z,5.03
2022-11-09T01:48:31.538Z,5.60
2022-11-09T01:51:08.970Z,5.10
2022-11-09T01:53:41.835Z,4.47
2022-11-09T01:56:12.514Z,5.00
2022-11-09T01:58:46.114Z,4.73
2022-11-09T02:01:14.303Z,4.87
2022-11-09T02:03:47.095Z,5.03
2022-11-09T02:06:16.450Z,5.27
2022-11-09T02:08:46.254Z,4.47
2022-11-09T02:11:17.541Z,5.10
2022-11-09T02:13:49.174Z,4.87
2022-11-09T02:16:15.901Z,5.23
2022-11-09T02:18:54.396Z,4.90
2022-11-09T02:21:23.569Z,4.90
2022-11-09T02:23:51.232Z,4.57
2022-11-09T02:26:32.359Z,4.50
2022-11-09T02:29:01.792Z,5.50
2022-11-09T02:31:33.673Z,4.93
2022-11-09T02:34:05.726Z,4.43
2022-11-09T02:36:32.414Z,5.13
2022-11-09T02:38:59.199Z,4.60
2022-11-09T02:41:27.166Z,5.07
2022-11-09T02:43:55.177Z,4.93
2022-11-09T02:46:30.991Z,5.40
2022-11-09T02:48:57.654Z,4.80
2022-11-09T02:51:24.317Z,4.97
2022-11-09T02:53:50.966Z,4.87
2022-11-09T02:56:17.641Z,4.83
2022-11-09T02:58:44.388Z,4.70
2022-11-09T03:01:11.279Z,4.90
2022-11-09T03:03:38.058Z,5.07
2022-11-09T03:06:05.003Z,4.93
2022-11-09T03:08:31.812Z,4.80
2022-11-09T03:11:00.033Z,4.97
2022-11-09T03:13:26.924Z,5.33
2022-11-09T03:15:53.669Z,5.20
2022-11-09T03:18:20.358Z,4.67
2022-11-09T03:20:47.023Z,4.90
2022-11-09T03:23:13.745Z,4.90
2022-11-09T03:25:40.444Z,5.10
2022-11-09T03:28:08.206Z,4.57
2022-11-09T03:30:35.583Z,5.07
2022-11-09T03:33:05.602Z,5.00
2022-11-09T03:35:33.794Z,5.67
2022-11-09T03:38:00.515Z,5.53
2022-11-09T03:40:27.200Z,5.60
2022-11-09T03:42:53.930Z,5.63
2022-11-09T03:45:20.665Z,4.90
2022-11-09T03:47:48.155Z,5.23
2022-11-09T03:50:17.170Z,5.20
2022-11-09T03:52:47.628Z,6.07
2022-11-09T03:55:14.965Z,5.40
2022-11-09T03:57:41.666Z,5.50
2022-11-09T04:00:09.476Z,5.83
2022-11-09T04:02:36.302Z,5.63
2022-11-09T04:05:03.162Z,5.50
2022-11-09T04:07:29.853Z,5.60
2022-11-09T04:09:56.604Z,5.67
2022-11-09T04:12:23.679Z,4.73
2022-11-09T04:14:50.412Z,5.77
2022-11-09T04:17:17.092Z,5.43
2022-11-09T04:19:43.813Z,5.67
2022-11-09T04:22:10.548Z,6.30
2022-11-09T04:24:37.227Z,6.17
2022-11-09T04:27:04.406Z,5.37
2022-11-09T04:29:31.099Z,5.67
2022-11-09T04:31:57.884Z,5.70
2022-11-09T04:34:24.554Z,5.50
2022-11-09T04:36:51.530Z,6.00
2022-11-09T04:39:18.183Z,5.83
2022-11-09T04:41:44.858Z,6.23
2022-11-09T04:44:11.753Z,6.13
2022-11-09T04:46:38.542Z,6.10
2022-11-09T04:49:05.380Z,5.80
2022-11-09T04:51:32.309Z,5.73
2022-11-09T04:53:59.035Z,5.97
2022-11-09T04:56:25.962Z,6.20
2022-11-09T04:58:52.625Z,6.20
2022-11-09T05:01:19.334Z,5.97
2022-11-09T05:03:46.140Z,7.40
2022-11-09T05:06:31.593Z,6.40
2022-11-09T05:09:04.993Z,7.10
2022-11-09T05:11:32.919Z,6.47
2022-11-09T05:13:59.991Z,7.10
2022-11-09T05:16:28.043Z,7.00
2022-11-09T05:18:55.087Z,6.50
2022-11-09T05:21:22.021Z,6.77
2022-11-09T05:24:01.005Z,6.50
2022-11-09T05:26:36.344Z,7.93
2022-11-09T05:29:06.660Z,6.13
2022-11-09T05:31:33.508Z,6.23
2022-11-09T05:34:00.911Z,5.73
2022-11-09T05:36:29.261Z,5.60
2022-11-09T05:38:56.333Z,5.57
2022-11-09T05:41:23.642Z,6.20
2022-11-09T05:43:50.651Z,5.87
2022-11-09T05:46:18.305Z,6.27
2022-11-09T05:48:45.780Z,6.37
2022-11-09T05:51:14.432Z,6.23
2022-11-09T05:53:46.176Z,5.87
2022-11-09T05:56:14.773Z,6.53
2022-11-09T05:58:42.039Z,5.90
2022-11-09T06:01:11.704Z,6.03
2022-11-09T06:03:38.958Z,5.77
2022-11-09T06:06:08.916Z,6.17
2022-11-09T06:08:36.456Z,6.97
2022-11-09T06:11:06.148Z,6.20
2022-11-09T06:13:33.603Z,6.23
2022-11-09T06:16:02.944Z,6.63
2022-11-09T06:18:31.524Z,6.90
2022-11-09T06:21:00.609Z,6.37
2022-11-09T06:23:29.190Z,6.37
2022-11-09T06:26:02.577Z,6.47
2022-11-09T06:28:29.649Z,6.10
2022-11-09T06:31:00.701Z,7.50
2022-11-09T06:33:30.045Z,6.33
2022-11-09T06:35:57.767Z,6.73
2022-11-09T06:38:26.494Z,7.00
2022-11-09T06:40:54.849Z,6.70
2022-11-09T06:43:22.316Z,6.33
2022-11-09T06:45:50.054Z,6.20
2022-11-09T06:48:16.809Z,6.17
2022-11-09T06:50:43.685Z,6.77
2022-11-09T06:53:12.958Z,6.60
2022-11-09T06:55:42.335Z,6.67
2022-11-09T06:58:15.765Z,6.57
2022-11-09T07:00:43.722Z,6.53
2022-11-09T07:03:17.542Z,6.33
2022-11-09T07:05:45.187Z,6.87
2022-11-09T07:08:12.536Z,6.73
2022-11-09T07:10:39.567Z,6.97
2022-11-09T07:13:06.758Z,7.17
2022-11-09T07:15:34.616Z,6.87
2022-11-09T07:18:02.850Z,6.80
2022-11-09T07:20:30.409Z,6.17
2022-11-09T07:22:57.560Z,6.90
2022-11-09T07:25:25.190Z,7.60
2022-11-09T07:27:51.958Z,6.73
2022-11-09T07:30:19.122Z,7.30
2022-11-09T07:35:33.507Z,7.37
2022-11-09T07:38:01.428Z,6.80
2022-11-09T07:40:28.234Z,6.30
2022-11-09T07:42:59.309Z,6.93
2022-11-09T07:45:26.080Z,7.20
2022-11-09T07:48:00.407Z,7.07
2022-11-09T07:50:28.947Z,6.83
2022-11-09T07:52:56.526Z,7.27
2022-11-09T07:55:24.546Z,6.03
2022-11-09T07:57:59.204Z,6.03
2022-11-09T08:00:27.713Z,6.77
2022-11-09T08:02:54.694Z,7.00
2022-11-09T08:05:21.583Z,7.47
2022-11-09T08:07:48.406Z,7.70
2022-11-09T08:10:15.468Z,7.07
2022-11-09T08:12:42.162Z,7.10
2022-11-09T08:15:09.483Z,6.97
2022-11-09T08:17:36.177Z,6.97
2022-11-09T08:20:03.438Z,6.87
2022-11-09T08:22:30.141Z,7.47
2022-11-09T08:24:56.802Z,7.67
2022-11-09T08:27:23.475Z,7.10
2022-11-09T08:29:50.217Z,7.70
2022-11-09T08:32:16.907Z,6.97
2022-11-09T08:34:47.956Z,7.47
2022-11-09T08:37:15.723Z,6.87
2022-11-09T08:39:42.462Z,7.27
2022-11-09T08:42:09.184Z,6.97
2022-11-09T08:44:35.887Z,6.50
2022-11-09T08:47:02.583Z,7.20
2022-11-09T08:49:29.315Z,6.77
2022-11-09T08:51:56.001Z,6.97
2022-11-09T08:54:22.670Z,7.40
2022-11-09T08:56:49.327Z,7.63
2022-11-09T08:59:15.973Z,6.80
2022-11-09T09:01:42.682Z,6.60
2022-11-09T09:04:09.387Z,7.07
2022-11-09T09:06:36.173Z,7.00
2022-11-09T09:09:02.961Z,7.63
2022-11-09T09:11:29.607Z,7.13
2022-11-09T09:13:56.311Z,7.47
2022-11-09T09:16:22.967Z,8.10
2022-11-09T09:18:49.695Z,7.13
2022-11-09T09:21:16.469Z,8.17
2022-11-09T09:23:43.144Z,8.23
2022-11-09T09:26:09.811Z,8.30
2022-11-09T09:28:36.466Z,8.27
2022-11-09T09:31:04.817Z,8.00
2022-11-09T09:33:31.524Z,7.23
2022-11-09T09:35:58.705Z,7.63
2022-11-09T09:38:27.138Z,13.73
2022-11-09T09:41:00.847Z,7.83
2022-11-09T09:43:53.994Z,7.43
2022-11-09T09:46:32.429Z,7.97
2022-11-09T09:49:05.820Z,13.53
2022-11-09T09:51:42.600Z,17.63
2022-11-09T09:54:19.751Z,6.90
2022-11-09T09:56:48.880Z,17.27
2022-11-09T09:59:27.010Z,9.43
2022-11-09T10:01:57.312Z,6.40
2022-11-09T10:04:33.126Z,6.60
2022-11-09T10:07:05.537Z,11.03
2022-11-09T10:09:40.367Z,6.93
2022-11-09T10:12:31.717Z,6.40
2022-11-09T10:15:25.924Z,7.23
2022-11-09T10:18:05.896Z,6.57
2022-11-09T10:20:51.735Z,6.73
2022-11-09T10:23:33.844Z,5.93
2022-11-09T10:26:28.295Z,6.10
2022-11-09T10:29:16.749Z,6.50
2022-11-09T10:31:45.869Z,6.20
2022-11-09T10:34:32.763Z,6.10
2022-11-09T10:37:03.367Z,6.57
2022-11-09T10:39:42.481Z,6.33
2022-11-09T10:42:11.521Z,6.07
2022-11-09T10:44:38.315Z,7.10
2022-11-09T10:47:13.729Z,7.50
2022-11-09T10:49:40.931Z,7.40
2022-11-09T10:52:32.813Z,8.67
2022-11-09T10:55:24.063Z,11.80
2022-11-09T10:57:58.564Z,7.73
2022-11-09T11:00:25.877Z,8.63
2022-11-09T11:02:53.396Z,9.60
2022-11-09T11:05:21.773Z,8.57
2022-11-09T11:07:48.448Z,6.10
2022-11-09T11:10:15.076Z,5.83
2022-11-09T11:12:43.069Z,9.30
2022-11-09T11:15:40.992Z,7.20
2022-11-09T11:18:24.205Z,5.10
2022-11-09T11:21:18.459Z,5.60
2022-11-09T11:24:16.703Z,4.95
2022-11-09T11:26:57.102Z,4.00
2022-11-09T11:29:26.738Z,4.20
2022-11-09T11:31:53.412Z,4.00
2022-11-09T11:34:45.600Z,4.07
2022-11-09T11:37:35.330Z,3.33
2022-11-09T11:40:05.371Z,4.65
2022-11-09T11:42:35.091Z,3.50
2022-11-09T11:45:38.909Z,3.40
2022-11-09T11:48:33.942Z,3.30
2022-11-09T11:51:18.033Z,3.15
2022-11-09T11:54:03.334Z,3.42
2022-11-09T11:56:46.594Z,4.28
2022-11-09T11:59:22.225Z,3.63
2022-11-09T12:02:10.696Z,3.35
2022-11-09T12:05:12.809Z,3.67
2022-11-09T12:07:39.468Z,3.25
2022-11-09T12:10:15.370Z,3.20
2022-11-09T12:12:53.450Z,3.38
2022-11-09T12:15:44.124Z,2.88
2022-11-09T12:18:55.832Z,8.32
2022-11-09T12:21:47.374Z,4.40
2022-11-09T12:24:57.535Z,2.28
2022-11-09T12:28:01.743Z,3.90
2022-11-09T12:31:04.675Z,4.13
2022-11-09T12:33:36.409Z,2.20
2022-11-09T12:36:17.046Z,1.75
2022-11-09T12:39:01.973Z,1.73
2022-11-09T12:41:34.775Z,1.95
2022-11-09T12:44:13.188Z,1.52
2022-11-09T12:46:49.395Z,2.00
2022-11-09T12:49:31.339Z,1.90
2022-11-09T12:51:59.228Z,1.80
2022-11-09T12:54:26.812Z,1.70
2022-11-09T12:57:16.078Z,1.77
2022-11-09T12:59:53.235Z,1.50
2022-11-09T13:02:33.890Z,1.60
2022-11-09T13:05:06.444Z,1.55
2022-11-09T13:07:53.435Z,1.70
2022-11-09T13:10:39.370Z,1.60
2022-11-09T13:13:11.844Z,3.03
2022-11-09T13:15:40.048Z,2.22
2022-11-09T13:18:35.644Z,2.20
2022-11-09T13:21:21.433Z,2.20
2022-11-09T13:24:02.117Z,1.90
2022-11-09T13:26:33.242Z,1.80
2022-11-09T13:29:29.010Z,2.13
2022-11-09T13:32:10.676Z,2.30
2022-11-09T13:34:49.660Z,2.00
2022-11-09T13:37:46.911Z,2.10
2022-11-09T13:40:31.870Z,1.88
2022-11-09T13:43:02.801Z,1.90
2022-11-09T13:45:35.560Z,1.60
2022-11-09T13:48:03.418Z,1.90
2022-11-09T13:50:32.747Z,1.90
2022-11-09T13:53:00.836Z,2.25
2022-11-09T13:55:40.537Z,2.10
2022-11-09T13:58:34.439Z,2.20
2022-11-09T14:01:01.152Z,2.55
2022-11-09T14:03:29.956Z,1.90
2022-11-09T14:06:00.995Z,1.85
2022-11-09T14:08:37.566Z,1.90
2022-11-09T14:11:25.632Z,1.95
2022-11-09T14:14:06.189Z,1.77
2022-11-09T14:16:51.768Z,2.65
2022-11-09T14:19:47.311Z,3.00
2022-11-09T14:22:16.530Z,3.15
2022-11-09T14:24:43.617Z,3.67
2022-11-09T14:27:10.225Z,3.03
2022-11-09T14:29:54.631Z,2.30
2022-11-09T14:32:30.386Z,1.77
2022-11-09T14:35:22.859Z,1.48
2022-11-09T14:37:51.075Z,1.48
2022-11-09T14:40:25.574Z,1.23
2022-11-09T14:43:20.559Z,1.13
2022-11-09T14:45:53.007Z,1.20
2022-11-09T14:48:21.868Z,1.40
2022-11-09T14:50:52.369Z,1.30
2022-11-09T14:53:31.838Z,1.30
2022-11-09T14:56:03.242Z,1.55
2022-11-09T14:58:32.943Z,1.35
2022-11-09T15:01:07.685Z,1.75
2022-11-09T15:03:34.394Z,2.17
2022-11-09T15:06:16.802Z,2.08
2022-11-09T15:08:58.522Z,1.70
2022-11-09T15:11:37.655Z,1.50
2022-11-09T15:14:15.130Z,1.58
2022-11-09T15:16:42.485Z,1.13
2022-11-09T15:19:52.799Z,1.38
2022-11-09T15:22:47.486Z,1.23
2022-11-09T15:25:43.520Z,1.35
2022-11-09T15:28:13.194Z,2.28
2022-11-09T15:30:59.362Z,2.78
2022-11-09T15:33:29.712Z,2.92
2022-11-09T15:36:20.962Z,2.92
2022-11-09T15:39:12.297Z,2.88
2022-11-09T15:41:39.072Z,3.42
2022-11-09T15:44:06.494Z,3.85
2022-11-09T15:46:41.428Z,3.42
2022-11-09T15:49:17.107Z,3.53
2022-11-09T15:51:44.633Z,3.40
2022-11-09T15:54:11.525Z,4.10
2022-11-09T15:56:38.222Z,4.57
2022-11-09T15:59:06.005Z,4.87
2022-11-09T16:01:32.927Z,5.70
2022-11-09T16:03:59.793Z,5.80
2022-11-09T16:06:26.891Z,5.00
2022-11-09T16:08:53.614Z,5.37
2022-11-09T16:11:20.349Z,7.60
2022-11-09T16:13:46.989Z,9.23
2022-11-09T16:16:15.448Z,9.07
2022-11-09T16:18:42.277Z,7.00
2022-11-09T16:21:14.793Z,6.90
2022-11-09T16:23:41.681Z,6.43
2022-11-09T16:26:10.948Z,5.65
2022-11-09T16:28:39.761Z,5.87
2022-11-09T16:31:07.766Z,5.77
2022-11-09T16:33:34.836Z,4.53
2022-11-09T16:36:04.756Z,4.57
2022-11-09T16:38:35.823Z,4.80
2022-11-09T16:41:03.575Z,4.50
2022-11-09T16:43:32.013Z,4.90
2022-11-09T16:45:59.812Z,4.30
2022-11-09T16:48:26.478Z,5.37
2022-11-09T16:50:53.711Z,5.17
2022-11-09T16:53:26.494Z,5.13
2022-11-09T16:55:53.553Z,5.07
2022-11-09T16:58:20.637Z,5.10
2022-11-09T17:01:09.669Z,5.00
2022-11-09T17:03:35.637Z,5.23
2022-11-09T17:06:03.268Z,5.00
2022-11-09T17:08:30.135Z,5.30
2022-11-09T17:10:56.919Z,4.87
2022-11-09T17:13:23.628Z,4.93
2022-11-09T17:15:52.631Z,6.50
2022-11-09T17:18:19.601Z,6.20
2022-11-09T17:20:50.745Z,6.00
2022-11-09T17:23:19.511Z,6.40
2022-11-09T17:26:01.654Z,5.97
2022-11-09T17:28:29.831Z,6.77
2022-11-09T17:30:56.898Z,6.00
2022-11-09T17:33:25.008Z,8.27
2022-11-09T17:36:03.592Z,8.63
2022-11-09T17:38:30.803Z,9.73
2022-11-09T17:41:10.982Z,8.90
2022-11-09T17:43:39.229Z,7.50
2022-11-09T17:46:14.473Z,8.33
2022-11-09T17:48:42.747Z,8.07
2022-11-09T17:51:10.407Z,8.50
2022-11-09T17:53:37.686Z,8.03
2022-11-09T17:56:05.063Z,11.87
2022-11-09T17:58:32.043Z,9.73
2022-11-09T18:01:10.159Z,10.50
2022-11-09T18:03:37.653Z,8.67
2022-11-09T18:06:09.868Z,7.57
2022-11-09T18:08:36.543Z,7.23
2022-11-09T18:11:03.279Z,6.80
2022-11-09T18:13:31.081Z,5.80
2022-11-09T18:15:58.074Z,6.10
2022-11-09T18:18:25.350Z,6.77
2022-11-09T18:20:52.988Z,7.13
2022-11-09T18:23:19.632Z,7.50
2022-11-09T18:25:56.967Z,7.70
2022-11-09T18:28:24.068Z,7.97
2022-11-09T18:30:50.774Z,6.57
2022-11-09T18:33:18.251Z,6.80
2022-11-09T18:35:54.546Z,6.67
2022-11-09T18:38:23.329Z,6.33
2022-11-09T18:41:05.081Z,6.53
2022-11-09T18:43:32.321Z,6.63
2022-11-09T18:46:01.866Z,7.23
2022-11-09T18:48:29.330Z,8.00
2022-11-09T18:50:57.192Z,8.33
2022-11-09T18:53:29.916Z,8.10
2022-11-09T18:56:06.211Z,7.13
2022-11-09T18:58:33.894Z,7.40
2022-11-09T19:01:03.818Z,7.17
2022-11-09T19:03:31.503Z,7.53
2022-11-09T19:05:58.308Z,7.47
2022-11-09T19:08:44.075Z,7.17
2022-11-09T19:11:12.841Z,7.00
2022-11-09T19:13:40.569Z,6.47
2022-11-09T19:16:11.015Z,5.73
2022-11-09T19:18:37.764Z,5.77
2022-11-09T19:21:05.146Z,6.43
2022-11-09T19:23:34.599Z,5.97
2022-11-09T19:26:02.060Z,6.77
2022-11-09T19:28:28.847Z,6.30
2022-11-09T19:30:57.884Z,6.67
2022-11-09T19:33:24.553Z,6.07
2022-11-09T19:36:23.283Z,6.50
2022-11-09T19:38:39.515Z,5.37
2022-11-09T19:41:08.018Z,5.20
2022-11-09T19:43:37.129Z,6.37
2022-11-09T19:46:07.232Z,4.93
2022-11-09T19:48:37.696Z,5.87
2022-11-09T19:51:05.130Z,5.13
2022-11-09T19:53:32.187Z,5.93
2022-11-09T19:56:11.482Z,6.00
2022-11-09T19:58:38.476Z,6.37
2022-11-09T20:01:08.074Z,6.47
2022-11-09T20:03:35.487Z,7.10
2022-11-09T20:06:03.399Z,6.40
2022-11-09T20:08:32.867Z,6.67
2022-11-09T20:11:07.785Z,6.63
2022-11-09T20:13:36.830Z,6.83
2022-11-09T20:16:05.082Z,6.93
2022-11-09T20:18:35.661Z,6.50
2022-11-09T20:21:03.449Z,5.70
2022-11-09T20:23:30.145Z,6.27
2022-11-09T20:26:07.734Z,6.17
2022-11-09T20:28:34.599Z,6.43
2022-11-09T20:31:01.596Z,6.00
2022-11-09T20:33:28.279Z,6.00
2022-11-09T20:35:55.911Z,6.63
2022-11-09T20:38:23.551Z,7.10
2022-11-09T20:41:11.489Z,7.67
2022-11-09T20:43:39.065Z,7.10
2022-11-09T20:46:13.988Z,7.03
2022-11-09T20:48:55.757Z,7.07
2022-11-09T20:51:23.803Z,6.70
2022-11-09T20:53:51.186Z,6.67
2022-11-09T20:56:18.967Z,7.03
2022-11-09T20:58:46.179Z,6.87
2022-11-09T21:01:14.991Z,7.23
2022-11-09T21:03:42.741Z,7.10
2022-11-09T21:06:10.991Z,7.30
2022-11-09T21:08:37.981Z,7.00
2022-11-09T21:11:09.569Z,5.77
2022-11-09T21:13:36.264Z,5.63
2022-11-09T21:16:11.724Z,5.57
2022-11-09T21:18:39.025Z,5.93
2022-11-09T21:21:15.268Z,5.80
2022-11-09T21:24:00.925Z,6.07
2022-11-09T21:26:57.628Z,5.37
2022-11-09T21:29:43.804Z,5.50
2022-11-09T21:32:12.196Z,5.67
2022-11-09T21:34:39.015Z,5.30
2022-11-09T21:37:06.465Z,5.73
2022-11-09T21:39:33.651Z,5.63
2022-11-09T21:42:01.456Z,5.43
2022-11-09T21:44:29.585Z,4.97
2022-11-09T21:46:56.433Z,5.17
2022-11-09T21:49:26.297Z,5.30
2022-11-09T21:51:53.579Z,5.40
2022-11-09T21:54:20.961Z,5.10
2022-11-09T21:56:50.120Z,4.80
2022-11-09T21:59:17.148Z,5.10
2022-11-09T22:01:44.437Z,4.70
2022-11-09T22:04:11.472Z,4.90
2022-11-09T22:06:39.950Z,5.10
2022-11-09T22:09:08.484Z,5.07
2022-11-09T22:11:53.946Z,6.23
2022-11-09T22:14:39.608Z,6.27
2022-11-09T22:17:10.651Z,6.43
2022-11-09T22:19:57.268Z,8.23
2022-11-09T22:22:24.573Z,9.17
2022-11-09T22:24:51.289Z,8.70
2022-11-09T22:27:18.008Z,8.77
2022-11-09T22:29:44.683Z,9.30
2022-11-09T22:32:11.351Z,8.60
2022-11-09T22:34:38.139Z,9.07
2022-11-09T22:37:04.987Z,8.30
2022-11-09T22:39:31.860Z,8.10
2022-11-09T22:41:58.561Z,7.73
2022-11-09T22:44:25.509Z,7.60
2022-11-09T22:46:52.329Z,7.17
2022-11-09T22:49:19.243Z,8.30
2022-11-09T22:51:46.026Z,8.90
2022-11-09T22:54:12.766Z,8.33
2022-11-09T22:56:39.594Z,8.07
2022-11-09T22:59:06.554Z,8.90
2022-11-09T23:01:33.430Z,7.60
2022-11-09T23:04:03.010Z,6.97
2022-11-09T23:06:29.849Z,7.77
2022-11-09T23:08:56.586Z,7.07
2022-11-09T23:11:24.912Z,8.00
2022-11-09T23:13:53.316Z,8.33
2022-11-09T23:16:21.197Z,6.80
2022-11-09T23:18:54.130Z,9.43
2022-11-09T23:21:32.336Z,11.63
2022-11-09T23:24:03.883Z,9.33
2022-11-09T23:26:32.279Z,9.60
2022-11-09T23:28:59.333Z,10.30
2022-11-09T23:31:28.915Z,11.33
2022-11-09T23:33:59.898Z,11.30
2022-11-09T23:36:26.967Z,10.00
2022-11-09T23:38:57.603Z,9.23
2022-11-09T23:41:27.205Z,8.90
2022-11-09T23:43:56.963Z,9.93
2022-11-09T23:46:23.716Z,11.13
2022-11-09T23:48:52.532Z,10.67
2022-11-09T23:51:19.247Z,10.63
2022-11-09T23:53:45.934Z,10.87
2022-11-09T23:56:12.831Z,11.00
2022-11-09T23:58:39.595Z,10.43
